createdAt,value
2017-07-16T00:01:18.293Z,4
2017-07-16T00:02:18.235Z,4
2017-07-16T00:03:17.825Z,4
2017-07-16T00:04:18.101Z,4
2017-07-16T00:05:18.012Z,4
2017-07-16T00:06:17.948Z,4
2017-07-16T00:07:17.597Z,4
2017-07-16T00:08:17.818Z,4
2017-07-16T00:09:17.451Z,4
2017-07-16T00:10:17.385Z,4
2017-07-16T00:11:17.329Z,4
2017-07-16T00:12:17.577Z,4
2017-07-16T00:13:17.590Z,4
2017-07-16T00:14:17.141Z,4
2017-07-16T00:15:17.075Z,4
2017-07-16T00:16:16.387Z,4
2017-07-16T00:17:17.298Z,4
2017-07-16T00:18:17.284Z,4
2017-07-16T00:19:16.907Z,4
2017-07-16T00:20:17.120Z,4
2017-07-16T00:21:17.008Z,4
2017-07-16T00:22:16.409Z,4
2017-07-16T00:23:16.561Z,4
2017-07-16T00:24:16.192Z,4
2017-07-16T00:25:16.506Z,4
2017-07-16T00:26:16.401Z,4
2017-07-16T00:27:16.683Z,4
2017-07-16T00:28:16.260Z,4
2017-07-16T00:29:16.200Z,4
2017-07-16T00:30:16.135Z,4
2017-07-16T00:31:16.072Z,4
2017-07-16T00:32:16.322Z,4
2017-07-16T00:33:16.341Z,4
2017-07-16T00:34:15.883Z,4
2017-07-16T00:35:16.223Z,4
2017-07-16T00:36:16.068Z,4
2017-07-16T00:37:16.055Z,4
2017-07-16T00:38:15.942Z,4
2017-07-16T00:39:15.370Z,4
2017-07-16T00:40:16.114Z,4
2017-07-16T00:41:15.470Z,4
2017-07-16T00:42:15.685Z,4
2017-07-16T00:43:15.657Z,4
2017-07-16T00:44:15.599Z,4
2017-07-16T00:45:15.342Z,4
2017-07-16T00:46:15.153Z,4
2017-07-16T00:47:15.465Z,4
2017-07-16T00:48:15.426Z,4
2017-07-16T00:49:15.090Z,4
2017-07-16T00:50:15.195Z,4
2017-07-16T00:51:14.897Z,4
2017-07-16T00:52:14.801Z,4
2017-07-16T00:53:14.766Z,4
2017-07-16T00:54:14.635Z,4
2017-07-16T00:55:14.874Z,4
2017-07-16T00:56:14.975Z,4
2017-07-16T00:57:14.126Z,4
2017-07-16T00:58:14.371Z,4
2017-07-16T00:59:14.623Z,4
2017-07-16T01:00:14.315Z,4
2017-07-16T01:01:14.518Z,4
2017-07-16T01:02:14.126Z,4
2017-07-16T01:03:14.375Z,4
2017-07-16T01:04:13.696Z,4
2017-07-16T01:05:14.604Z,4
2017-07-16T01:06:13.927Z,4
2017-07-16T01:07:13.873Z,4
2017-07-16T01:08:14.058Z,4
2017-07-16T01:09:14.013Z,4
2017-07-16T01:10:14.088Z,4
2017-07-16T01:11:13.931Z,4
2017-07-16T01:12:13.206Z,4
2017-07-16T01:13:13.154Z,4
2017-07-16T01:14:13.454Z,4
2017-07-16T01:15:13.466Z,4
2017-07-16T01:16:13.598Z,4
2017-07-16T01:17:13.191Z,4
2017-07-16T01:18:12.814Z,4
2017-07-16T01:19:13.541Z,4
2017-07-16T01:20:13.368Z,4
2017-07-16T01:21:12.930Z,4
2017-07-16T01:22:12.864Z,4
2017-07-16T01:23:12.579Z,4
2017-07-16T01:24:12.453Z,4
2017-07-16T01:25:12.714Z,4
2017-07-16T01:26:13.331Z,4
2017-07-16T01:27:12.559Z,4
2017-07-16T01:28:12.183Z,4
2017-07-16T01:29:12.755Z,4
2017-07-16T01:30:12.368Z,4
2017-07-16T01:31:12.977Z,4
2017-07-16T01:32:12.646Z,4
2017-07-16T01:33:12.491Z,4
2017-07-16T01:34:12.200Z,4
2017-07-16T01:35:12.115Z,4
2017-07-16T01:36:12.413Z,4
2017-07-16T01:37:12.579Z,4
2017-07-16T01:38:12.279Z,4
2017-07-16T01:39:12.115Z,4
2017-07-16T01:40:12.290Z,4
2017-07-16T01:41:12.001Z,4
2017-07-16T01:42:11.393Z,4
2017-07-16T01:43:11.578Z,4
2017-07-16T01:44:11.800Z,4
2017-07-16T01:45:11.837Z,4
2017-07-16T01:46:11.673Z,4
2017-07-16T01:47:11.333Z,4
2017-07-16T01:48:11.280Z,4
2017-07-16T01:49:11.605Z,4
2017-07-16T01:50:11.367Z,4
2017-07-16T01:51:11.398Z,4
2017-07-16T01:52:11.137Z,4
2017-07-16T01:53:10.930Z,4
2017-07-16T01:54:11.203Z,4
2017-07-16T01:55:11.214Z,4
2017-07-16T01:56:10.741Z,4
2017-07-16T01:57:10.674Z,4
2017-07-16T01:58:10.618Z,4
2017-07-16T01:59:10.561Z,4
2017-07-16T02:00:10.798Z,4
2017-07-16T02:01:10.493Z,4
2017-07-16T02:02:10.359Z,4
2017-07-16T02:03:10.305Z,4
2017-07-16T02:04:10.249Z,4
2017-07-16T02:05:10.860Z,4
2017-07-16T02:06:10.422Z,4
2017-07-16T02:07:10.072Z,4
2017-07-16T02:08:09.985Z,4
2017-07-16T02:09:09.923Z,4
2017-07-16T02:10:10.173Z,4
2017-07-16T02:11:10.114Z,4
2017-07-16T02:12:09.819Z,4
2017-07-16T02:13:09.988Z,4
2017-07-16T02:14:09.917Z,4
2017-07-16T02:15:09.679Z,4
2017-07-16T02:16:09.564Z,4
2017-07-16T02:17:09.740Z,4
2017-07-16T02:18:09.670Z,4
2017-07-16T02:19:09.675Z,4
2017-07-16T02:20:09.940Z,4
2017-07-16T02:21:08.738Z,4
2017-07-16T02:22:09.139Z,4
2017-07-16T02:23:08.803Z,4
2017-07-16T02:24:08.987Z,4
2017-07-16T02:25:08.613Z,4
2017-07-16T02:26:08.549Z,4
2017-07-16T02:27:09.183Z,4
2017-07-16T02:28:08.726Z,4
2017-07-16T02:29:08.668Z,4
2017-07-16T02:30:08.374Z,4
2017-07-16T02:31:08.239Z,4
2017-07-16T02:32:08.323Z,4
2017-07-16T02:33:08.728Z,4
2017-07-16T02:34:08.041Z,4
2017-07-16T02:35:08.301Z,4
2017-07-16T02:36:07.945Z,4
2017-07-16T02:37:08.476Z,4
2017-07-16T02:38:08.182Z,4
2017-07-16T02:39:08.252Z,4
2017-07-16T02:40:07.893Z,4
2017-07-16T02:41:07.912Z,4
2017-07-16T02:42:07.849Z,4
2017-07-16T02:43:08.102Z,4
2017-07-16T02:44:08.035Z,4
2017-07-16T02:45:07.432Z,4
2017-07-16T02:46:07.905Z,4
2017-07-16T02:47:07.534Z,4
2017-07-16T02:48:07.846Z,4
2017-07-16T02:49:07.721Z,4
2017-07-16T02:50:07.358Z,8
2017-07-16T02:51:07.361Z,8
2017-07-16T02:52:07.426Z,8
2017-07-16T02:53:07.165Z,8
2017-07-16T02:54:07.154Z,8
2017-07-16T02:55:06.726Z,8
2017-07-16T02:56:07.282Z,4
2017-07-16T02:57:07.222Z,4
2017-07-16T02:58:07.161Z,4
2017-07-16T02:59:07.097Z,4
2017-07-16T03:00:06.782Z,4
2017-07-16T03:01:06.721Z,4
2017-07-16T03:02:06.647Z,4
2017-07-16T03:03:06.845Z,4
2017-07-16T03:04:06.504Z,4
2017-07-16T03:05:06.505Z,4
2017-07-16T03:06:06.691Z,4
2017-07-16T03:07:06.277Z,4
2017-07-16T03:08:06.244Z,4
2017-07-16T03:09:06.465Z,4
2017-07-16T03:10:06.415Z,4
2017-07-16T03:11:05.810Z,4
2017-07-16T03:12:05.968Z,8
2017-07-16T03:13:06.215Z,8
2017-07-16T03:14:06.150Z,8
2017-07-16T03:15:06.038Z,8
2017-07-16T03:16:05.720Z,8
2017-07-16T03:17:05.980Z,8
2017-07-16T03:18:05.904Z,4
2017-07-16T03:19:05.850Z,8
2017-07-16T03:20:05.932Z,8
2017-07-16T03:21:05.710Z,8
2017-07-16T03:22:05.035Z,8
2017-07-16T03:23:05.277Z,12
2017-07-16T03:24:05.300Z,8
2017-07-16T03:25:05.297Z,8
2017-07-16T03:26:05.089Z,8
2017-07-16T03:27:05.028Z,12
2017-07-16T03:28:05.273Z,12
2017-07-16T03:29:04.894Z,8
2017-07-16T03:30:04.532Z,12
2017-07-16T03:31:05.087Z,12
2017-07-16T03:32:04.715Z,16
2017-07-16T03:33:04.643Z,12
2017-07-16T03:34:04.585Z,16
2017-07-16T03:35:04.993Z,16
2017-07-16T03:36:04.461Z,20
2017-07-16T03:37:04.797Z,16
2017-07-16T03:38:04.340Z,20
2017-07-16T03:39:04.338Z,20
2017-07-16T03:40:04.464Z,24
2017-07-16T03:41:04.460Z,24
2017-07-16T03:42:04.406Z,24
2017-07-16T03:43:04.346Z,24
2017-07-16T03:44:03.960Z,24
2017-07-16T03:45:04.470Z,28
2017-07-16T03:46:04.166Z,28
2017-07-16T03:47:04.095Z,28
2017-07-16T03:48:03.400Z,32
2017-07-16T03:49:04.043Z,28
2017-07-16T03:50:03.899Z,32
2017-07-16T03:51:03.831Z,32
2017-07-16T03:52:03.464Z,36
2017-07-16T03:53:03.419Z,36
2017-07-16T03:54:03.672Z,36
2017-07-16T03:55:03.589Z,40
2017-07-16T03:56:03.519Z,44
2017-07-16T03:57:03.453Z,44
2017-07-16T03:58:03.385Z,48
2017-07-16T03:59:03.011Z,48
2017-07-16T04:00:02.642Z,52
2017-07-16T04:01:03.199Z,48
2017-07-16T04:02:02.870Z,52
2017-07-16T04:03:02.468Z,52
2017-07-16T04:04:02.700Z,52
2017-07-16T04:05:02.724Z,56
2017-07-16T04:06:02.577Z,52
2017-07-16T04:07:02.895Z,52
2017-07-16T04:08:02.880Z,56
2017-07-16T04:09:02.697Z,56
2017-07-16T04:10:02.328Z,56
2017-07-16T04:11:02.573Z,56
2017-07-16T04:12:02.511Z,56
2017-07-16T04:13:02.137Z,56
2017-07-16T04:14:02.410Z,60
2017-07-16T04:15:02.015Z,60
2017-07-16T04:16:02.269Z,64
2017-07-16T04:17:01.271Z,64
2017-07-16T04:18:01.852Z,64
2017-07-16T04:19:01.453Z,64
2017-07-16T04:20:02.016Z,68
2017-07-16T04:21:01.950Z,68
2017-07-16T04:22:01.887Z,68
2017-07-16T04:23:01.508Z,72
2017-07-16T04:24:01.478Z,72
2017-07-16T04:25:01.408Z,72
2017-07-16T04:26:01.163Z,80
2017-07-16T04:27:01.260Z,80
2017-07-16T04:28:01.202Z,80
2017-07-16T04:29:00.827Z,84
2017-07-16T04:30:01.070Z,84
2017-07-16T04:31:01.575Z,88
2017-07-16T04:32:00.943Z,88
2017-07-16T04:33:00.883Z,92
2017-07-16T04:34:00.822Z,92
2017-07-16T04:35:01.095Z,92
2017-07-16T04:36:01.012Z,96
2017-07-16T04:37:00.642Z,96
2017-07-16T04:38:00.976Z,96
2017-07-16T04:39:00.826Z,100
2017-07-16T04:40:00.753Z,100
2017-07-16T04:41:00.682Z,104
2017-07-16T04:42:00.630Z,108
2017-07-16T04:43:00.569Z,104
2017-07-16T04:44:00.207Z,108
2017-07-16T04:45:00.441Z,108
2017-07-16T04:46:00.378Z,108
2017-07-16T04:47:00.005Z,112
2017-07-16T04:48:00.256Z,112
2017-07-16T04:49:00.196Z,116
2017-07-16T04:50:00.122Z,116
2017-07-16T04:51:00.067Z,108
2017-07-16T04:51:59.999Z,88
2017-07-16T04:52:59.939Z,96
2017-07-16T04:53:59.886Z,116
2017-07-16T04:54:59.573Z,116
2017-07-16T04:55:59.211Z,76
2017-07-16T04:56:59.688Z,100
2017-07-16T04:57:59.622Z,120
2017-07-16T04:58:59.249Z,116
2017-07-16T04:59:59.572Z,124
2017-07-16T05:00:59.126Z,124
2017-07-16T05:01:59.373Z,124
2017-07-16T05:02:59.311Z,124
2017-07-16T05:03:58.626Z,128
2017-07-16T05:04:59.233Z,128
2017-07-16T05:05:59.135Z,128
2017-07-16T05:06:59.061Z,128
2017-07-16T05:07:58.999Z,128
2017-07-16T05:08:58.621Z,128
2017-07-16T05:09:58.557Z,132
2017-07-16T05:10:58.809Z,132
2017-07-16T05:11:58.749Z,132
2017-07-16T05:12:58.685Z,132
2017-07-16T05:13:58.318Z,132
2017-07-16T05:14:58.251Z,132
2017-07-16T05:15:58.197Z,136
2017-07-16T05:16:58.456Z,140
2017-07-16T05:17:57.755Z,140
2017-07-16T05:18:57.995Z,144
2017-07-16T05:19:58.242Z,140
2017-07-16T05:20:57.878Z,140
2017-07-16T05:21:57.809Z,140
2017-07-16T05:22:58.050Z,140
2017-07-16T05:23:58.010Z,144
2017-07-16T05:24:57.933Z,144
2017-07-16T05:25:57.561Z,148
2017-07-16T05:26:57.502Z,148
2017-07-16T05:28:01.042Z,148
2017-07-16T05:28:57.370Z,148
2017-07-16T05:29:57.624Z,144
2017-07-16T05:30:57.285Z,148
2017-07-16T05:31:57.182Z,148
2017-07-16T05:32:57.119Z,148
2017-07-16T05:33:56.755Z,144
2017-07-16T05:34:57.299Z,140
2017-07-16T05:35:57.332Z,140
2017-07-16T05:36:57.177Z,144
2017-07-16T05:37:57.128Z,136
2017-07-16T05:38:57.054Z,140
2017-07-16T05:39:56.989Z,148
2017-07-16T05:40:56.765Z,144
2017-07-16T05:41:56.552Z,148
2017-07-16T05:42:56.856Z,148
2017-07-16T05:43:56.431Z,148
2017-07-16T05:44:56.675Z,152
2017-07-16T05:45:56.868Z,156
2017-07-16T05:46:56.549Z,156
2017-07-16T05:47:56.180Z,132
2017-07-16T05:48:56.417Z,124
2017-07-16T05:49:56.410Z,136
2017-07-16T05:50:55.684Z,152
2017-07-16T05:51:55.931Z,152
2017-07-16T05:52:56.172Z,148
2017-07-16T05:53:55.810Z,148
2017-07-16T05:54:56.051Z,132
2017-07-16T05:55:55.367Z,120
2017-07-16T05:56:55.303Z,128
2017-07-16T05:57:55.868Z,132
2017-07-16T05:58:55.490Z,124
2017-07-16T05:59:55.732Z,100
2017-07-16T06:00:55.463Z,96
2017-07-16T06:01:55.365Z,84
2017-07-16T06:02:54.924Z,76
2017-07-16T06:03:55.489Z,80
2017-07-16T06:04:55.420Z,80
2017-07-16T06:05:55.504Z,84
2017-07-16T06:06:54.990Z,84
2017-07-16T06:07:55.235Z,72
2017-07-16T06:08:54.551Z,72
2017-07-16T06:09:55.110Z,68
2017-07-16T06:10:54.754Z,68
2017-07-16T06:11:54.673Z,64
2017-07-16T06:12:54.602Z,68
2017-07-16T06:13:54.860Z,68
2017-07-16T06:14:54.887Z,64
2017-07-16T06:15:54.425Z,64
2017-07-16T06:16:54.669Z,68
2017-07-16T06:17:54.605Z,68
2017-07-16T06:18:54.542Z,68
2017-07-16T06:19:54.231Z,72
2017-07-16T06:20:53.833Z,68
2017-07-16T06:21:54.046Z,68
2017-07-16T06:22:53.671Z,64
2017-07-16T06:23:54.006Z,64
2017-07-16T06:24:54.253Z,64
2017-07-16T06:25:53.491Z,64
2017-07-16T06:26:53.733Z,68
2017-07-16T06:27:53.979Z,72
2017-07-16T06:28:53.920Z,72
2017-07-16T06:29:53.860Z,76
2017-07-16T06:30:53.808Z,80
2017-07-16T06:31:53.419Z,80
2017-07-16T06:32:53.357Z,80
2017-07-16T06:33:53.598Z,80
2017-07-16T06:34:52.929Z,84
2017-07-16T06:35:53.475Z,88
2017-07-16T06:36:53.420Z,92
2017-07-16T06:37:53.357Z,92
2017-07-16T06:38:52.671Z,96
2017-07-16T06:39:53.229Z,88
2017-07-16T06:40:53.165Z,76
2017-07-16T06:41:52.791Z,72
2017-07-16T06:42:52.731Z,72
2017-07-16T06:43:52.977Z,68
2017-07-16T06:44:56.175Z,64
2017-07-16T06:46:07.283Z,64
2017-07-16T06:46:52.480Z,64
2017-07-16T06:47:52.867Z,68
2017-07-16T06:48:52.744Z,72
2017-07-16T06:49:52.287Z,76
2017-07-16T06:50:52.527Z,76
2017-07-16T06:51:52.624Z,76
2017-07-16T06:52:52.100Z,80
2017-07-16T06:53:52.040Z,80
2017-07-16T06:54:52.287Z,76
2017-07-16T06:55:52.163Z,76
2017-07-16T06:56:51.859Z,76
2017-07-16T06:57:51.790Z,76
2017-07-16T06:58:52.041Z,76
2017-07-16T06:59:51.974Z,76
2017-07-16T07:00:52.014Z,80
2017-07-16T07:01:51.916Z,80
2017-07-16T07:02:51.482Z,88
2017-07-16T07:03:51.721Z,88
2017-07-16T07:04:51.359Z,100
2017-07-16T07:05:51.588Z,92
2017-07-16T07:06:51.157Z,100
2017-07-16T07:07:51.162Z,108
2017-07-16T07:08:50.793Z,112
2017-07-16T07:09:51.035Z,112
2017-07-16T07:10:51.284Z,120
2017-07-16T07:11:51.162Z,132
2017-07-16T07:12:51.168Z,132
2017-07-16T07:13:50.809Z,144
2017-07-16T07:14:50.831Z,144
2017-07-16T07:15:51.016Z,156
2017-07-16T07:16:51.274Z,132
2017-07-16T07:17:50.848Z,136
2017-07-16T07:18:50.792Z,140
2017-07-16T07:19:50.135Z,132
2017-07-16T07:20:50.998Z,124
2017-07-16T07:21:50.643Z,124
2017-07-16T07:22:49.913Z,128
2017-07-16T07:23:49.853Z,120
2017-07-16T07:24:50.427Z,116
2017-07-16T07:25:49.768Z,108
2017-07-16T07:26:49.991Z,108
2017-07-16T07:27:50.295Z,108
2017-07-16T07:28:49.850Z,108
2017-07-16T07:29:49.788Z,104
2017-07-16T07:30:50.035Z,104
2017-07-16T07:31:49.662Z,100
2017-07-16T07:32:50.017Z,96
2017-07-16T07:33:49.540Z,100
2017-07-16T07:34:49.493Z,108
2017-07-16T07:35:49.463Z,120
2017-07-16T07:36:49.778Z,116
2017-07-16T07:37:49.286Z,120
2017-07-16T07:38:49.557Z,120
2017-07-16T07:39:49.159Z,116
2017-07-16T07:40:49.860Z,116
2017-07-16T07:41:49.034Z,116
2017-07-16T07:42:48.972Z,112
2017-07-16T07:43:49.232Z,116
2017-07-16T07:44:49.155Z,128
2017-07-16T07:45:49.093Z,124
2017-07-16T07:46:49.042Z,116
2017-07-16T07:47:48.664Z,108
2017-07-16T07:48:48.597Z,108
2017-07-16T07:49:48.538Z,128
2017-07-16T07:50:48.790Z,112
2017-07-16T07:51:48.434Z,128
2017-07-16T07:52:48.349Z,124
2017-07-16T07:53:48.630Z,108
2017-07-16T07:54:48.532Z,112
2017-07-16T07:55:48.410Z,124
2017-07-16T07:56:48.471Z,124
2017-07-16T07:57:48.364Z,124
2017-07-16T07:58:47.667Z,120
2017-07-16T07:59:48.300Z,124
2017-07-16T08:00:48.372Z,116
2017-07-16T08:01:48.136Z,128
2017-07-16T08:02:48.043Z,100
2017-07-16T08:03:47.732Z,92
2017-07-16T08:04:47.974Z,96
2017-07-16T08:05:48.802Z,96
2017-07-16T08:06:47.471Z,116
2017-07-16T08:07:47.482Z,144
2017-07-16T08:08:47.353Z,140
2017-07-16T08:09:47.289Z,136
2017-07-16T08:10:47.956Z,148
2017-07-16T08:11:47.194Z,152
2017-07-16T08:12:47.412Z,184
2017-07-16T08:13:47.589Z,192
2017-07-16T08:14:47.280Z,184
2017-07-16T08:15:47.318Z,160
2017-07-16T08:16:46.945Z,160
2017-07-16T08:17:46.792Z,168
2017-07-16T08:18:46.725Z,148
2017-07-16T08:19:46.982Z,144
2017-07-16T08:20:46.913Z,136
2017-07-16T08:21:46.603Z,160
2017-07-16T08:22:45.852Z,140
2017-07-16T08:23:45.790Z,120
2017-07-16T08:24:46.350Z,144
2017-07-16T08:25:46.290Z,144
2017-07-16T08:26:46.768Z,116
2017-07-16T08:27:46.474Z,112
2017-07-16T08:28:46.111Z,112
2017-07-16T08:29:46.372Z,132
2017-07-16T08:30:46.351Z,112
2017-07-16T08:31:45.912Z,116
2017-07-16T08:32:45.580Z,124
2017-07-16T08:33:46.253Z,132
2017-07-16T08:34:47.496Z,124
2017-07-16T08:35:45.984Z,128
2017-07-16T08:36:45.910Z,120
2017-07-16T08:37:46.046Z,120
2017-07-16T08:38:45.791Z,116
2017-07-16T08:39:45.721Z,116
2017-07-16T08:40:45.497Z,116
2017-07-16T08:41:45.817Z,108
2017-07-16T08:42:45.232Z,104
2017-07-16T08:43:45.539Z,108
2017-07-16T08:44:45.114Z,108
2017-07-16T08:45:45.343Z,104
2017-07-16T08:46:45.105Z,132
2017-07-16T08:47:45.225Z,108
2017-07-16T08:48:44.847Z,112
2017-07-16T08:49:45.155Z,112
2017-07-16T08:50:44.477Z,116
2017-07-16T08:51:45.049Z,120
2017-07-16T08:52:44.618Z,124
2017-07-16T08:53:44.554Z,116
2017-07-16T08:54:44.185Z,112
2017-07-16T08:55:44.098Z,116
2017-07-16T08:56:44.406Z,116
2017-07-16T08:57:44.590Z,120
2017-07-16T08:58:44.657Z,128
2017-07-16T08:59:44.475Z,132
2017-07-16T09:00:44.423Z,140
2017-07-16T09:01:44.050Z,144
2017-07-16T09:02:43.968Z,136
2017-07-16T09:03:44.272Z,168
2017-07-16T09:04:44.154Z,160
2017-07-16T09:05:44.343Z,140
2017-07-16T09:06:43.835Z,148
2017-07-16T09:07:43.869Z,128
2017-07-16T09:08:43.287Z,124
2017-07-16T09:09:43.841Z,128
2017-07-16T09:10:43.790Z,128
2017-07-16T09:11:43.727Z,132
2017-07-16T09:12:43.339Z,124
2017-07-16T09:13:43.303Z,128
2017-07-16T09:14:43.529Z,128
2017-07-16T09:15:43.515Z,120
2017-07-16T09:16:43.096Z,120
2017-07-16T09:17:43.362Z,116
2017-07-16T09:18:43.285Z,112
2017-07-16T09:19:43.446Z,112
2017-07-16T09:20:42.592Z,108
2017-07-16T09:21:43.048Z,104
2017-07-16T09:22:42.728Z,100
2017-07-16T09:23:42.390Z,100
2017-07-16T09:24:42.628Z,104
2017-07-16T09:25:42.541Z,100
2017-07-16T09:26:42.580Z,100
2017-07-16T09:27:42.750Z,96
2017-07-16T09:28:42.728Z,96
2017-07-16T09:29:42.331Z,96
2017-07-16T09:30:42.344Z,96
2017-07-16T09:31:42.720Z,92
2017-07-16T09:32:42.412Z,92
2017-07-16T09:33:42.346Z,96
2017-07-16T09:34:41.718Z,96
2017-07-16T09:35:42.276Z,96
2017-07-16T09:36:42.347Z,96
2017-07-16T09:37:41.794Z,96
2017-07-16T09:38:41.480Z,104
2017-07-16T09:39:42.010Z,108
2017-07-16T09:40:41.697Z,112
2017-07-16T09:41:41.695Z,112
2017-07-16T09:42:41.369Z,112
2017-07-16T09:43:42.674Z,112
2017-07-16T09:44:41.671Z,112
2017-07-16T09:45:41.668Z,116
2017-07-16T09:46:41.587Z,120
2017-07-16T09:47:41.239Z,136
2017-07-16T09:48:40.795Z,112
2017-07-16T09:49:40.723Z,100
2017-07-16T09:50:41.295Z,108
2017-07-16T09:51:40.932Z,104
2017-07-16T09:52:40.849Z,104
2017-07-16T09:53:40.232Z,100
2017-07-16T09:54:40.722Z,104
2017-07-16T09:55:40.969Z,100
2017-07-16T09:56:41.019Z,100
2017-07-16T09:57:40.302Z,100
2017-07-16T09:58:40.545Z,96
2017-07-16T09:59:40.717Z,96
2017-07-16T10:00:40.573Z,96
2017-07-16T10:01:40.156Z,100
2017-07-16T10:02:40.262Z,100
2017-07-16T10:03:40.475Z,104
2017-07-16T10:04:40.156Z,100
2017-07-16T10:05:40.159Z,96
2017-07-16T10:06:39.979Z,96
2017-07-16T10:07:40.139Z,96
2017-07-16T10:08:40.244Z,92
2017-07-16T10:09:39.797Z,96
2017-07-16T10:10:39.840Z,92
2017-07-16T10:11:39.689Z,96
2017-07-16T10:12:39.360Z,100
2017-07-16T10:13:40.826Z,104
2017-07-16T10:14:39.846Z,108
2017-07-16T10:15:39.688Z,108
2017-07-16T10:16:39.099Z,108
2017-07-16T10:17:39.552Z,104
2017-07-16T10:18:39.877Z,104
2017-07-16T10:19:39.543Z,100
2017-07-16T10:20:39.617Z,96
2017-07-16T10:21:39.060Z,92
2017-07-16T10:22:38.454Z,96
2017-07-16T10:23:38.660Z,92
2017-07-16T10:24:38.937Z,96
2017-07-16T10:25:39.021Z,96
2017-07-16T10:26:38.728Z,96
2017-07-16T10:27:39.167Z,100
2017-07-16T10:28:38.613Z,104
2017-07-16T10:29:38.653Z,104
2017-07-16T10:30:38.325Z,108
2017-07-16T10:31:38.469Z,108
2017-07-16T10:32:38.044Z,108
2017-07-16T10:33:38.603Z,108
2017-07-16T10:34:38.227Z,112
2017-07-16T10:35:38.264Z,116
2017-07-16T10:36:38.109Z,116
2017-07-16T10:37:38.430Z,116
2017-07-16T10:38:38.296Z,120
2017-07-16T10:39:37.916Z,120
2017-07-16T10:40:37.961Z,124
2017-07-16T10:41:38.108Z,136
2017-07-16T10:42:37.943Z,140
2017-07-16T10:43:37.679Z,156
2017-07-16T10:44:37.627Z,168
2017-07-16T10:45:37.855Z,168
2017-07-16T10:46:37.487Z,148
2017-07-16T10:47:37.770Z,140
2017-07-16T10:48:37.373Z,132
2017-07-16T10:49:37.664Z,124
2017-07-16T10:50:37.287Z,120
2017-07-16T10:51:37.737Z,120
2017-07-16T10:52:37.422Z,112
2017-07-16T10:53:37.378Z,108
2017-07-16T10:54:37.346Z,108
2017-07-16T10:55:36.999Z,112
2017-07-16T10:56:37.347Z,108
2017-07-16T10:57:37.124Z,112
2017-07-16T10:58:37.044Z,112
2017-07-16T10:59:37.185Z,108
2017-07-16T11:00:36.783Z,112
2017-07-16T11:01:36.553Z,112
2017-07-16T11:02:36.495Z,116
2017-07-16T11:03:36.391Z,120
2017-07-16T11:04:36.366Z,120
2017-07-16T11:05:36.928Z,120
2017-07-16T11:06:36.553Z,116
2017-07-16T11:07:36.484Z,112
2017-07-16T11:08:36.423Z,108
2017-07-16T11:09:36.066Z,108
2017-07-16T11:10:36.001Z,108
2017-07-16T11:11:36.337Z,108
2017-07-16T11:12:36.197Z,112
2017-07-16T11:13:35.864Z,112
2017-07-16T11:14:36.045Z,116
2017-07-16T11:15:36.114Z,116
2017-07-16T11:16:35.922Z,116
2017-07-16T11:17:35.682Z,116
2017-07-16T11:18:35.497Z,116
2017-07-16T11:19:35.148Z,116
2017-07-16T11:20:35.426Z,120
2017-07-16T11:21:35.265Z,112
2017-07-16T11:22:35.254Z,108
2017-07-16T11:23:35.175Z,108
2017-07-16T11:24:35.139Z,108
2017-07-16T11:25:35.268Z,112
2017-07-16T11:26:35.311Z,108
2017-07-16T11:27:35.247Z,108
2017-07-16T11:28:35.176Z,104
2017-07-16T11:29:35.122Z,100
2017-07-16T11:30:35.162Z,100
2017-07-16T11:31:34.680Z,96
2017-07-16T11:32:34.317Z,96
2017-07-16T11:33:35.131Z,96
2017-07-16T11:34:34.195Z,92
2017-07-16T11:35:34.895Z,88
2017-07-16T11:36:34.648Z,92
2017-07-16T11:37:34.615Z,92
2017-07-16T11:38:34.836Z,88
2017-07-16T11:39:33.892Z,88
2017-07-16T11:40:34.144Z,88
2017-07-16T11:41:34.081Z,88
2017-07-16T11:42:34.050Z,88
2017-07-16T11:43:33.962Z,88
2017-07-16T11:44:34.088Z,88
2017-07-16T11:45:34.135Z,92
2017-07-16T11:46:34.060Z,92
2017-07-16T11:47:33.770Z,88
2017-07-16T11:48:33.933Z,84
2017-07-16T11:49:34.082Z,84
2017-07-16T11:50:33.904Z,76
2017-07-16T11:51:33.999Z,72
2017-07-16T11:52:33.370Z,68
2017-07-16T11:53:33.344Z,60
2017-07-16T11:54:33.261Z,60
2017-07-16T11:55:33.497Z,56
2017-07-16T11:56:33.148Z,52
2017-07-16T11:57:33.104Z,52
2017-07-16T11:58:33.003Z,52
2017-07-16T11:59:33.259Z,48
2017-07-16T12:00:33.259Z,48
2017-07-16T12:01:32.817Z,44
2017-07-16T12:02:33.067Z,44
2017-07-16T12:03:33.021Z,48
2017-07-16T12:04:32.645Z,48
2017-07-16T12:05:32.898Z,48
2017-07-16T12:06:32.194Z,48
2017-07-16T12:07:32.441Z,56
2017-07-16T12:08:32.066Z,56
2017-07-16T12:09:32.334Z,60
2017-07-16T12:10:32.303Z,60
2017-07-16T12:11:32.501Z,64
2017-07-16T12:12:32.440Z,68
2017-07-16T12:13:32.415Z,68
2017-07-16T12:14:32.315Z,72
2017-07-16T12:15:31.944Z,80
2017-07-16T12:16:32.085Z,84
2017-07-16T12:17:31.823Z,84
2017-07-16T12:18:31.780Z,88
2017-07-16T12:19:32.010Z,92
2017-07-16T12:20:31.955Z,96
2017-07-16T12:21:32.085Z,96
2017-07-16T12:22:31.606Z,96
2017-07-16T12:23:31.510Z,92
2017-07-16T12:24:31.922Z,88
2017-07-16T12:25:31.321Z,88
2017-07-16T12:26:31.822Z,88
2017-07-16T12:27:30.903Z,88
2017-07-16T12:28:31.145Z,92
2017-07-16T12:29:31.152Z,88
2017-07-16T12:30:31.079Z,92
2017-07-16T12:31:31.152Z,92
2017-07-16T12:32:30.928Z,96
2017-07-16T12:33:31.152Z,96
2017-07-16T12:34:31.069Z,100
2017-07-16T12:35:31.026Z,104
2017-07-16T12:36:30.645Z,104
2017-07-16T12:37:30.614Z,104
2017-07-16T12:38:30.586Z,100
2017-07-16T12:39:30.531Z,100
2017-07-16T12:40:30.671Z,100
2017-07-16T12:41:30.382Z,92
2017-07-16T12:42:30.660Z,88
2017-07-16T12:43:30.555Z,88
2017-07-16T12:44:30.529Z,84
2017-07-16T12:45:30.078Z,88
2017-07-16T12:46:30.339Z,84
2017-07-16T12:47:30.465Z,84
2017-07-16T12:48:29.982Z,80
2017-07-16T12:49:30.142Z,80
2017-07-16T12:50:30.307Z,80
2017-07-16T12:51:30.017Z,76
2017-07-16T12:52:29.846Z,80
2017-07-16T12:53:29.929Z,76
2017-07-16T12:54:29.613Z,76
2017-07-16T12:55:29.785Z,72
2017-07-16T12:56:29.391Z,72
2017-07-16T12:57:29.783Z,72
2017-07-16T12:58:29.031Z,72
2017-07-16T12:59:29.300Z,64
2017-07-16T13:00:29.266Z,64
2017-07-16T13:01:29.529Z,64
2017-07-16T13:02:29.024Z,60
2017-07-16T13:03:29.271Z,60
2017-07-16T13:04:28.896Z,60
2017-07-16T13:05:29.231Z,60
2017-07-16T13:06:29.079Z,60
2017-07-16T13:07:29.018Z,60
2017-07-16T13:08:28.956Z,64
2017-07-16T13:09:28.913Z,64
2017-07-16T13:10:29.034Z,68
2017-07-16T13:11:28.159Z,68
2017-07-16T13:12:28.403Z,68
2017-07-16T13:13:28.732Z,68
2017-07-16T13:14:28.638Z,68
2017-07-16T13:15:28.603Z,64
2017-07-16T13:16:28.513Z,68
2017-07-16T13:17:28.394Z,68
2017-07-16T13:18:28.342Z,68
2017-07-16T13:19:28.219Z,68
2017-07-16T13:20:28.216Z,64
2017-07-16T13:21:27.842Z,64
2017-07-16T13:22:28.188Z,68
2017-07-16T13:23:27.755Z,72
2017-07-16T13:24:27.646Z,72
2017-07-16T13:25:27.994Z,72
2017-07-16T13:26:27.549Z,76
2017-07-16T13:27:27.473Z,76
2017-07-16T13:28:27.422Z,80
2017-07-16T13:29:27.878Z,84
2017-07-16T13:30:27.324Z,80
2017-07-16T13:31:27.528Z,80
2017-07-16T13:32:27.502Z,76
2017-07-16T13:33:27.090Z,76
2017-07-16T13:34:27.468Z,72
2017-07-16T13:35:26.914Z,72
2017-07-16T13:36:27.303Z,68
2017-07-16T13:37:27.226Z,68
2017-07-16T13:38:27.170Z,68
2017-07-16T13:39:27.057Z,72
2017-07-16T13:40:26.754Z,72
2017-07-16T13:41:26.717Z,76
2017-07-16T13:42:26.544Z,72
2017-07-16T13:43:26.483Z,76
2017-07-16T13:44:26.727Z,72
2017-07-16T13:45:26.179Z,72
2017-07-16T13:46:26.329Z,64
2017-07-16T13:47:26.632Z,64
2017-07-16T13:48:26.213Z,60
2017-07-16T13:49:26.434Z,60
2017-07-16T13:50:26.136Z,60
2017-07-16T13:51:26.003Z,60
2017-07-16T13:52:26.029Z,56
2017-07-16T13:53:26.246Z,56
2017-07-16T13:54:25.478Z,52
2017-07-16T13:55:26.039Z,52
2017-07-16T13:56:26.008Z,48
2017-07-16T13:57:25.949Z,48
2017-07-16T13:58:25.916Z,48
2017-07-16T13:59:25.592Z,48
2017-07-16T14:00:26.025Z,44
2017-07-16T14:01:25.709Z,44
2017-07-16T14:02:25.621Z,40
2017-07-16T14:03:25.572Z,44
2017-07-16T14:04:25.179Z,40
2017-07-16T14:05:25.428Z,40
2017-07-16T14:06:25.360Z,40
2017-07-16T14:07:24.740Z,40
2017-07-16T14:08:25.276Z,40
2017-07-16T14:09:25.187Z,40
2017-07-16T14:10:25.007Z,40
2017-07-16T14:11:25.094Z,40